MSC Emma — V7WY6 — position and weather

sailwx.info

Track history (hours):
 
Tides and Currents Weather Stations Pressure Air Temp Water Temp Dewpoint Dewpoint Depression Visibility Wind Speed Wind Dir Waves Ship Positions

MSC Emma

Last reported at 2015-Mar-04 03:31 UTC. Time now 2015-Mar-04 04:23 UTC.
Position N 38°12' E 000°03'.

Length 294 m; draft 8.9 m.

Type: Ship. MMSI: 538004424.

Date/timePositionNaut miles runAvg speedWind from/ knotsBaromVisibWave heightAir tempDewpointWater temp
2015-Mar-04 03:31N 38°12' E 000°03'1718.3
2015-Mar-04 02:33N 37°57' W 000°09'1818.4
2015-Mar-04 01:33N 37°43' W 000°23'1817.8
2015-Mar-04 00:33N 37°29' W 000°37'1818.1
2015-Mar-03 23:33N 37°17' W 000°54'1918.7
2015-Mar-03 22:33N 37°04' W 001°12'20318.5
2015-Mar-03 11:32N 36°00' W 005°12'  
2015-Feb-27 13:22N 21°27' W 017°47'2913.1
2015-Feb-27 11:10N 20°60' W 017°57'4014.3
2015-Feb-27 08:24N 20°20' W 017°60'2713.2
2015-Feb-27 06:21N 19°53' W 017°60'4712.4
2015-Feb-27 02:33N 19°06' W 018°00'1512.2
2015-Feb-27 01:18N 18°51' W 017°60'4512.1
2015-Feb-26 21:34N 18°06' W 017°59'  
2015-Feb-24 04:33N 07°51' W 014°41'  
Track history (hours):
 
Tides and Currents Weather Stations Pressure Air Temp Water Temp Dewpoint Dewpoint Depression Visibility Wind Speed Wind Dir Waves Ship Positions

MSC Emma

Last reported at 2015-Mar-04 03:31 UTC. Time now 2015-Mar-04 04:23 UTC.
Position N 38°12' E 000°03'.

Length 294 m; draft 8.9 m.

Type: Ship. MMSI: 538004424.

Date/timePositionNaut miles runAvg speedWind from/ knotsBaromVisibWave heightAir tempDewpointWater temp
2015-Mar-04 03:31N 38°12' E 000°03'1718.3
2015-Mar-04 02:33N 37°57' W 000°09'1818.4
2015-Mar-04 01:33N 37°43' W 000°23'1817.8
2015-Mar-04 00:33N 37°29' W 000°37'1818.1
2015-Mar-03 23:33N 37°17' W 000°54'1918.7
2015-Mar-03 22:33N 37°04' W 001°12'20318.5
2015-Mar-03 11:32N 36°00' W 005°12'  
2015-Feb-27 13:22N 21°27' W 017°47'2913.1
2015-Feb-27 11:10N 20°60' W 017°57'4014.3
2015-Feb-27 08:24N 20°20' W 017°60'2713.2
2015-Feb-27 06:21N 19°53' W 017°60'4712.4
2015-Feb-27 02:33N 19°06' W 018°00'1512.2
2015-Feb-27 01:18N 18°51' W 017°60'4512.1
2015-Feb-26 21:34N 18°06' W 017°59'  
2015-Feb-24 04:33N 07°51' W 014°41'  

Dump ship's entire track history